Time;durP1;ratioP1;P1;durP2;ratioP2;P2;SDS_P1;SDS_P2;PMS_P1;PMS_P2;Temp;Humidity;BMP_temperature;BMP_pressure;BME280_temperature;BME280_humidity;BME280_pressure;Samples;Min_cycle;Max_cycle;Signal;HPM_P1;HPM_P2
2022/03/10 00:02:50;;;;;;;16.80;9.73;;;;;;;-4.34;63.20;101403.23;1771364;81;21253;-56
2022/03/10 00:05:55;;;;;;;15.00;10.10;;;;;;;-4.47;63.30;101396.61;1771341;80;21682;-56
2022/03/10 00:09:02;;;;;;;18.57;10.68;;;;;;;-4.61;63.57;101415.79;1771339;80;21284;-56
2022/03/10 00:12:11;;;;;;;17.73;11.10;;;;;;;-4.68;63.89;101412.95;1771524;80;21189;-55
2022/03/10 00:15:19;;;;;;;13.85;8.85;;;;;;;-4.73;64.14;101418.46;1771326;80;21331;-55
2022/03/10 00:18:26;;;;;;;16.60;9.88;;;;;;;-4.77;64.03;101410.13;1771224;81;21203;-55
2022/03/10 00:21:33;;;;;;;15.63;8.20;;;;;;;-4.88;63.89;101417.66;1771347;80;21205;-57
2022/03/10 00:24:38;;;;;;;18.15;10.13;;;;;;;-5.02;63.89;101413.72;1771232;80;21173;-57
2022/03/10 00:27:44;;;;;;;14.00;9.03;;;;;;;-5.11;64.17;101412.71;1771389;80;21181;-56
2022/03/10 00:30:51;;;;;;;14.60;8.65;;;;;;;-5.14;64.23;101402.14;1763961;81;21212;-57
2022/03/10 00:33:57;;;;;;;17.85;9.85;;;;;;;-5.21;64.47;101413.94;1771399;80;21560;-56
2022/03/10 00:37:02;;;;;;;20.48;8.68;;;;;;;-5.20;64.49;101413.88;1771355;80;21217;-57
2022/03/10 00:40:07;;;;;;;15.85;8.70;;;;;;;-5.23;64.45;101411.33;1771476;80;21237;-56
2022/03/10 00:43:13;;;;;;;12.65;8.20;;;;;;;-5.32;64.21;101408.09;1771305;80;21201;-56
2022/03/10 00:46:22;;;;;;;12.07;7.75;;;;;;;-5.46;64.44;101402.34;1771312;81;21154;-55
2022/03/10 00:49:27;;;;;;;15.78;9.30;;;;;;;-5.53;64.75;101401.67;1769541;80;21201;-56
2022/03/10 00:52:33;;;;;;;14.83;8.20;;;;;;;-5.53;64.88;101402.13;1771248;81;21185;-56
2022/03/10 00:55:39;;;;;;;15.28;8.45;;;;;;;-5.53;65.07;101404.34;1771444;80;21213;-56
2022/03/10 00:58:45;;;;;;;13.83;8.58;;;;;;;-5.52;65.00;101408.77;1771494;80;21335;-56
2022/03/10 01:01:51;;;;;;;12.33;8.15;;;;;;;-5.59;64.88;101409.88;1772539;80;21174;-55
2022/03/10 01:04:57;;;;;;;13.22;7.60;;;;;;;-5.70;65.07;101408.47;1771122;81;21202;-55
2022/03/10 01:08:03;;;;;;;13.50;7.70;;;;;;;-5.76;65.28;101410.89;1771281;80;21741;-55
2022/03/10 01:11:09;;;;;;;13.80;8.45;;;;;;;-5.77;65.58;101415.80;1771283;80;21201;-56
2022/03/10 01:14:14;;;;;;;14.73;7.95;;;;;;;-5.74;65.66;101414.36;1771176;80;21173;-56
2022/03/10 01:17:20;;;;;;;13.98;8.23;;;;;;;-5.78;65.45;101419.84;1771907;80;21201;-57
2022/03/10 01:20:26;;;;;;;14.55;7.60;;;;;;;-5.82;65.68;101427.13;1771771;81;21159;-55
2022/03/10 01:23:33;;;;;;;12.50;7.62;;;;;;;-5.84;65.72;101410.75;1771886;80;21165;-55
2022/03/10 01:26:38;;;;;;;11.68;7.78;;;;;;;-5.92;65.71;101422.98;1771821;81;21194;-56
2022/03/10 01:29:44;;;;;;;12.88;7.83;;;;;;;-5.99;65.83;101429.41;1771648;80;21280;-55
2022/03/10 01:32:51;;;;;;;14.63;7.70;;;;;;;-6.11;65.89;101432.46;1771832;81;21215;-56
2022/03/10 01:35:58;;;;;;;16.30;9.30;;;;;;;-6.19;66.17;101429.15;1771672;81;21174;-56
2022/03/10 01:39:06;;;;;;;14.70;8.28;;;;;;;-6.20;66.38;101424.75;1771956;81;21312;-55
2022/03/10 01:42:11;;;;;;;12.37;6.90;;;;;;;-6.17;66.62;101432.17;1772045;80;21185;-55
2022/03/10 01:45:18;;;;;;;14.93;8.18;;;;;;;-6.17;66.53;101446.42;1771706;81;21237;-57
2022/03/10 01:48:24;;;;;;;16.02;8.55;;;;;;;-6.26;66.61;101444.89;1772072;80;21178;-55
2022/03/10 01:51:31;;;;;;;15.50;9.33;;;;;;;-6.37;66.69;101434.55;1770015;80;21698;-55
2022/03/10 01:54:37;;;;;;;12.35;8.23;;;;;;;-6.43;66.84;101428.53;1772799;80;21177;-55
2022/03/10 01:57:43;;;;;;;14.70;9.05;;;;;;;-6.45;66.94;101435.23;1772133;79;21225;-56
2022/03/10 02:00:49;;;;;;;14.68;8.38;;;;;;;-6.47;66.89;101445.05;1771774;81;21182;-57
2022/03/10 02:03:58;;;;;;;12.23;7.25;;;;;;;-6.58;66.75;101439.16;1771228;80;21173;-57
2022/03/10 02:07:05;;;;;;;15.38;9.05;;;;;;;-6.66;67.02;101440.30;1771579;80;21221;-55
2022/03/10 02:10:19;;;;;;;16.80;9.58;;;;;;;-6.70;67.20;101442.62;1771794;80;21197;-55
2022/03/10 02:13:28;;;;;;;23.38;12.75;;;;;;;-6.64;67.39;101442.44;1772449;80;21292;-59
2022/03/10 02:20:05;;;;;;;25.68;14.58;;;;;;;-6.55;67.25;101452.86;1771401;80;21173;-56
2022/03/10 02:23:12;;;;;;;29.42;15.63;;;;;;;-6.50;67.01;101450.95;1771749;80;21698;-55
2022/03/10 02:26:17;;;;;;;28.65;15.30;;;;;;;-6.57;66.62;101448.02;1771033;80;21241;-57
2022/03/10 02:29:22;;;;;;;25.00;14.33;;;;;;;-6.60;66.84;101455.66;1771463;80;21205;-55
2022/03/10 02:32:28;;;;;;;28.32;16.17;;;;;;;-6.57;66.84;101465.33;1772215;80;21335;-56
2022/03/10 02:35:33;;;;;;;30.77;17.02;;;;;;;-6.58;66.53;101460.45;1771492;80;21177;-55
2022/03/10 02:38:39;;;;;;;31.25;17.52;;;;;;;-6.55;66.44;101459.03;1771203;80;21173;-57
2022/03/10 02:41:45;;;;;;;26.73;15.58;;;;;;;-6.57;66.13;101460.89;1770915;80;21174;-55
2022/03/10 02:44:56;;;;;;;28.23;15.00;;;;;;;-6.62;65.98;101457.92;1771956;80;21197;-56
2022/03/10 02:48:02;;;;;;;23.62;14.75;;;;;;;-6.72;65.99;101465.73;1771542;80;21190;-55
2022/03/10 02:51:08;;;;;;;26.68;16.32;;;;;;;-6.77;65.89;101478.32;1771413;80;21209;-56
2022/03/10 02:54:14;;;;;;;26.12;15.13;;;;;;;-6.87;65.81;101474.14;1767378;80;21264;-55
2022/03/10 02:57:23;;;;;;;24.25;12.75;;;;;;;-6.96;65.90;101479.23;1771318;80;21181;-55
2022/03/10 03:00:29;;;;;;;26.25;15.05;;;;;;;-7.03;65.93;101479.00;1771975;80;21351;-56
2022/03/10 03:03:36;;;;;;;24.27;14.45;;;;;;;-7.08;66.08;101485.33;1771444;80;21713;-56
2022/03/10 03:06:41;;;;;;;21.80;12.30;;;;;;;-7.09;66.07;101484.48;1770997;80;21213;-56
2022/03/10 03:09:48;;;;;;;22.95;14.03;;;;;;;-7.06;66.04;101483.52;1770720;80;21240;-57
2022/03/10 03:12:56;;;;;;;22.42;12.13;;;;;;;-7.10;65.81;101478.72;1770811;81;21158;-62
2022/03/10 03:16:03;;;;;;;21.55;12.73;;;;;;;-7.14;65.66;101489.03;1771111;79;21244;-56
2022/03/10 03:19:10;;;;;;;20.00;10.78;;;;;;;-7.16;65.65;101497.95;1770860;81;21773;-56
2022/03/10 03:22:18;;;;;;;18.95;12.33;;;;;;;-7.20;65.48;101491.86;1770859;80;21197;-55
2022/03/10 03:25:24;;;;;;;18.82;11.68;;;;;;;-7.27;65.35;101502.66;1771246;81;21221;-55
2022/03/10 03:28:30;;;;;;;22.52;13.00;;;;;;;-7.30;65.38;101495.64;1771413;81;21193;-56
2022/03/10 03:31:38;;;;;;;22.90;12.18;;;;;;;-7.29;65.24;101506.69;1771338;81;21505;-57
2022/03/10 03:34:44;;;;;;;26.50;13.90;;;;;;;-7.33;65.02;101509.02;1771347;81;21217;-57
2022/03/10 03:37:50;;;;;;;27.50;15.40;;;;;;;-7.34;64.80;101506.39;1763902;81;21162;-56
2022/03/10 03:40:56;;;;;;;33.18;17.15;;;;;;;-7.34;64.65;101495.76;1771280;80;21197;-57
2022/03/10 03:44:03;;;;;;;34.13;19.05;;;;;;;-7.33;64.33;101502.81;1771185;81;21189;-56
2022/03/10 03:47:08;;;;;;;29.27;14.80;;;;;;;-7.27;64.28;101505.31;1771287;81;21236;-56
2022/03/10 03:50:14;;;;;;;30.92;16.35;;;;;;;-7.30;63.87;101518.69;1771255;81;21173;-56
2022/03/10 03:53:20;;;;;;;30.60;16.60;;;;;;;-7.29;63.78;101515.14;1762321;81;21244;-57
2022/03/10 03:56:25;;;;;;;28.57;14.70;;;;;;;-7.29;63.45;101521.80;1773425;80;21224;-57
2022/03/10 03:59:32;;;;;;;37.45;17.42;;;;;;;-7.35;63.33;101519.25;1773068;80;21209;-56
2022/03/10 04:02:38;;;;;;;26.60;15.32;;;;;;;-7.41;63.12;101519.41;1773034;81;21248;-57
2022/03/10 04:05:46;;;;;;;32.85;14.75;;;;;;;-7.43;63.31;101526.53;1773642;80;21189;-57
2022/03/10 04:08:52;;;;;;;27.10;15.15;;;;;;;-7.38;63.15;101528.19;1773312;80;21299;-57
2022/03/10 04:11:58;;;;;;;30.30;16.82;;;;;;;-7.41;62.69;101524.27;1772746;80;21639;-58
2022/03/10 04:15:04;;;;;;;27.48;16.17;;;;;;;-7.50;62.81;101536.91;1773166;80;21221;-56
2022/03/10 04:18:11;;;;;;;30.30;15.83;;;;;;;-7.50;62.74;101532.92;1773067;80;21181;-57
2022/03/10 04:21:17;;;;;;;28.05;15.23;;;;;;;-7.48;62.65;101525.31;1773265;80;21209;-56
2022/03/10 04:24:24;;;;;;;25.85;14.00;;;;;;;-7.49;62.56;101532.00;1773045;80;21335;-56
2022/03/10 04:27:30;;;;;;;25.48;12.95;;;;;;;-7.50;62.42;101528.93;1773087;80;21240;-58
2022/03/10 04:30:37;;;;;;;25.10;13.58;;;;;;;-7.53;62.13;101531.19;1773067;80;21244;-56
2022/03/10 04:33:43;;;;;;;28.38;11.12;;;;;;;-7.54;62.23;101547.17;1773349;80;21166;-56
2022/03/10 04:36:50;;;;;;;23.83;12.88;;;;;;;-7.57;62.08;101538.83;1773066;80;21205;-56
2022/03/10 04:39:56;;;;;;;21.77;12.85;;;;;;;-7.55;62.05;101537.45;1772890;80;21217;-56
2022/03/10 04:43:02;;;;;;;19.23;11.60;;;;;;;-7.49;61.79;101546.62;1773020;80;21190;-55
2022/03/10 04:46:08;;;;;;;21.75;11.15;;;;;;;-7.47;61.53;101555.44;1772978;80;21359;-56
2022/03/10 04:49:15;;;;;;;21.42;10.90;;;;;;;-7.48;61.35;101552.37;1773011;80;21249;-55
2022/03/10 04:52:20;;;;;;;19.17;10.95;;;;;;;-7.47;61.17;101552.34;1772705;80;21250;-55
2022/03/10 04:55:26;;;;;;;23.57;10.00;;;;;;;-7.48;61.14;101565.67;1769683;80;21256;-56
2022/03/10 04:58:32;;;;;;;9.95;6.37;;;;;;;-7.47;60.71;101560.31;1771156;80;21205;-56
2022/03/10 05:01:37;;;;;;;24.32;10.00;;;;;;;-7.49;60.48;101562.13;1770901;80;21165;-55
2022/03/10 05:04:45;;;;;;;13.90;7.45;;;;;;;-7.39;60.54;101579.63;1771067;80;21753;-55
2022/03/10 05:07:53;;;;;;;20.35;8.28;;;;;;;-7.25;60.00;101572.20;1772324;80;21201;-55
2022/03/10 05:10:59;;;;;;;15.85;8.68;;;;;;;-7.22;59.15;101576.56;1771461;80;21201;-55
2022/03/10 05:14:04;;;;;;;18.77;9.88;;;;;;;-7.18;58.78;101584.43;1771420;80;21170;-55
2022/03/10 05:17:09;;;;;;;17.27;8.75;;;;;;;-7.21;58.12;101583.17;1771430;80;21189;-56
2022/03/10 05:20:17;;;;;;;14.28;8.55;;;;;;;-7.29;57.88;101589.13;1764704;80;21201;-55
2022/03/10 05:23:22;;;;;;;15.30;8.25;;;;;;;-7.28;58.08;101594.88;1771427;81;21194;-56
2022/03/10 05:26:28;;;;;;;19.90;11.95;;;;;;;-7.16;58.05;101599.02;1771384;80;21248;-57
2022/03/10 05:29:33;;;;;;;17.30;10.32;;;;;;;-7.11;57.79;101585.16;1764551;80;21187;-56
2022/03/10 05:32:38;;;;;;;17.27;9.35;;;;;;;-7.07;57.15;101600.16;1740533;82;21223;-56
2022/03/10 05:35:45;;;;;;;23.20;10.25;;;;;;;-7.04;56.96;101596.09;1733983;82;21791;-56
2022/03/10 05:38:51;;;;;;;17.82;9.55;;;;;;;-6.99;56.29;101596.87;1740464;82;21199;-56
2022/03/10 05:41:57;;;;;;;15.50;7.50;;;;;;;-6.94;56.27;101605.59;1740686;82;21186;-55
2022/03/10 05:45:03;;;;;;;17.00;7.15;;;;;;;-6.90;55.61;101625.91;1740902;82;21227;-55
2022/03/10 05:48:12;;;;;;;14.47;7.60;;;;;;;-7.02;55.33;101597.80;1740833;82;21183;-55
2022/03/10 05:51:17;;;;;;;18.85;7.92;;;;;;;-7.10;55.10;101610.41;1740812;82;21254;-55
2022/03/10 05:54:25;;;;;;;16.32;8.60;;;;;;;-7.13;55.18;101620.23;1740937;82;21195;-54
2022/03/10 05:57:31;;;;;;;11.70;7.28;;;;;;;-7.07;55.21;101597.02;1738408;82;21263;-55
2022/03/10 06:00:37;;;;;;;19.75;9.25;;;;;;;-6.97;55.26;101609.20;1750705;80;21552;-56
2022/03/10 06:03:42;;;;;;;18.15;9.13;;;;;;;-6.82;55.17;101602.65;1770497;80;21170;-55
2022/03/10 06:06:49;;;;;;;18.77;10.23;;;;;;;-6.60;54.70;101602.53;1770752;80;21295;-55
2022/03/10 06:09:56;;;;;;;16.93;9.90;;;;;;;-6.49;54.12;101605.80;1755434;80;21248;-56
2022/03/10 06:13:03;;;;;;;16.73;9.03;;;;;;;-6.44;53.87;101609.22;1740335;81;21714;-56
2022/03/10 06:16:10;;;;;;;17.77;9.13;;;;;;;-6.41;53.34;101614.46;1741291;82;21240;-56
2022/03/10 06:19:17;;;;;;;14.23;8.15;;;;;;;-6.38;53.43;101637.91;1746904;81;21198;-56
2022/03/10 06:22:27;;;;;;;13.10;7.15;;;;;;;-6.41;52.94;101613.13;1763821;80;21242;-57
2022/03/10 06:25:34;;;;;;;11.93;5.70;;;;;;;-6.48;53.32;101616.41;1760221;81;21283;-56
2022/03/10 06:28:41;;;;;;;8.90;5.78;;;;;;;-6.48;52.93;101622.17;1755611;81;21384;-62
2022/03/10 06:31:50;;;;;;;11.08;6.62;;;;;;;-6.58;52.49;101627.34;1768394;81;21197;-57
2022/03/10 06:34:59;;;;;;;16.87;6.92;;;;;;;-6.66;52.59;101616.00;1759544;80;21526;-60
2022/03/10 06:38:04;;;;;;;13.85;6.80;;;;;;;-6.74;52.15;101619.31;1737932;82;21244;-55
2022/03/10 06:41:09;;;;;;;14.18;6.75;;;;;;;-6.82;52.47;101618.62;1739664;81;21846;-56
2022/03/10 06:44:15;;;;;;;18.32;7.70;;;;;;;-6.74;52.90;101624.16;1739803;81;21236;-55
2022/03/10 06:47:20;;;;;;;10.65;6.62;;;;;;;-6.64;52.56;101635.00;1738540;82;21781;-55
2022/03/10 06:50:26;;;;;;;18.62;7.70;;;;;;;-6.56;52.52;101625.04;1738522;81;21774;-54
2022/03/10 06:53:32;;;;;;;11.48;6.78;;;;;;;-6.60;51.84;101643.80;1739760;81;22015;-56
2022/03/10 06:56:32;;;;;;;12.85;6.92;;;;;;;-6.67;52.05;101615.56;1753439;81;21730;-56
2022/03/10 06:59:37;;;;;;;15.63;7.00;;;;;;;-6.55;52.17;101632.58;1742221;81;21217;-56
2022/03/10 07:02:44;;;;;;;13.00;6.70;;;;;;;-6.51;52.00;101638.23;1739596;82;21762;-55
2022/03/10 07:05:53;;;;;;;12.00;5.55;;;;;;;-6.50;51.58;101629.35;1740562;81;21185;-56
2022/03/10 07:08:58;;;;;;;10.95;6.40;;;;;;;-6.52;51.41;101620.52;1700589;84;21309;-55
2022/03/10 07:12:03;;;;;;;17.55;8.00;;;;;;;-6.55;51.69;101624.12;1739580;82;21193;-56
2022/03/10 07:15:09;;;;;;;15.38;6.40;;;;;;;-6.47;51.91;101614.62;1747770;81;21212;-57
2022/03/10 07:18:17;;;;;;;12.10;6.17;;;;;;;-6.31;52.41;101631.96;1754165;80;21195;-55
2022/03/10 07:21:26;;;;;;;14.58;6.17;;;;;;;-6.20;52.16;101628.56;1762720;80;21777;-55
2022/03/10 07:24:32;;;;;;;29.48;10.65;;;;;;;-6.08;51.44;101630.88;1755224;80;21511;-54
2022/03/10 07:27:38;;;;;;;19.10;8.23;;;;;;;-6.08;51.45;101618.89;1758415;81;21511;-55
2022/03/10 07:30:44;;;;;;;19.42;8.68;;;;;;;-5.96;51.57;101614.55;1768751;80;21263;-55
2022/03/10 07:33:50;;;;;;;19.25;8.63;;;;;;;-5.83;51.29;101605.74;1759385;80;21264;-55
2022/03/10 07:36:56;;;;;;;16.70;8.28;;;;;;;-5.83;50.89;101602.63;1738558;82;21721;-55
2022/03/10 07:40:01;;;;;;;21.85;9.83;;;;;;;-5.82;51.41;101613.73;1739427;82;21264;-55
2022/03/10 07:43:08;;;;;;;20.55;9.90;;;;;;;-5.68;51.35;101594.62;1738607;82;21436;-54
2022/03/10 07:46:15;;;;;;;8.03;4.33;;;;;;;-5.56;51.27;101624.91;1740808;81;21205;-54
2022/03/10 07:49:23;;;;;;;12.28;5.37;;;;;;;-5.52;50.58;101610.59;1755101;81;22046;-55
2022/03/10 07:52:28;;;;;;;13.68;6.85;;;;;;;-5.75;50.26;101626.36;1738767;82;21201;-55
2022/03/10 07:55:35;;;;;;;24.07;9.58;;;;;;;-5.88;50.94;101591.22;1739102;82;21212;-55
2022/03/10 07:58:40;;;;;;;20.17;8.25;;;;;;;-5.85;51.11;101598.27;1738584;80;21335;-55
2022/03/10 08:01:46;;;;;;;13.25;6.40;;;;;;;-5.68;51.57;101630.17;1742879;82;21753;-55
2022/03/10 08:04:53;;;;;;;10.95;6.33;;;;;;;-5.64;50.54;101609.59;1742368;81;21753;-56
2022/03/10 08:08:01;;;;;;;10.98;5.83;;;;;;;-5.72;50.67;101617.83;1750200;81;21240;-56
2022/03/10 08:11:07;;;;;;;15.25;5.75;;;;;;;-5.75;50.91;101613.92;1758013;81;21219;-55
2022/03/10 08:14:14;;;;;;;11.97;5.28;;;;;;;-5.72;50.97;101621.83;1756606;81;21207;-55
2022/03/10 08:17:20;;;;;;;11.95;4.58;;;;;;;-5.83;50.64;101618.62;1757276;81;21195;-55
2022/03/10 08:20:28;;;;;;;12.70;5.72;;;;;;;-6.00;50.94;101601.35;1749750;80;21221;-55
2022/03/10 08:23:35;;;;;;;17.70;7.10;;;;;;;-5.96;51.97;101611.88;1741143;81;21206;-57
2022/03/10 08:26:44;;;;;;;11.38;6.10;;;;;;;-5.77;51.91;101603.75;1740572;82;21181;-54
2022/03/10 08:29:50;;;;;;;15.35;6.10;;;;;;;-5.58;52.10;101601.45;1740161;82;21630;-55
2022/03/10 08:32:55;;;;;;;10.65;5.08;;;;;;;-5.39;51.49;101612.83;1740410;82;21196;-54
2022/03/10 08:36:03;;;;;;;7.10;4.37;;;;;;;-5.35;51.18;101595.83;1740748;82;21252;-55
2022/03/10 08:39:08;;;;;;;28.95;8.50;;;;;;;-5.38;50.77;101637.28;1754024;81;21200;-55
2022/03/10 08:42:14;;;;;;;11.78;6.12;;;;;;;-5.52;50.80;101609.26;1763276;81;21216;-55
2022/03/10 08:45:20;;;;;;;18.77;5.95;;;;;;;-5.54;50.97;101617.75;1772703;80;21225;-56
2022/03/10 08:48:28;;;;;;;22.40;7.90;;;;;;;-5.57;51.19;101615.18;1747763;80;21556;-55
2022/03/10 08:51:34;;;;;;;14.33;7.08;;;;;;;-5.59;51.12;101591.22;1741498;82;21208;-55
2022/03/10 08:54:42;;;;;;;22.30;7.87;;;;;;;-5.56;51.59;101595.13;1739911;82;21240;-55
2022/03/10 08:57:52;;;;;;;15.00;7.28;;;;;;;-5.42;52.07;101604.92;1741634;82;21849;-58
2022/03/10 09:01:00;;;;;;;18.87;7.15;;;;;;;-5.28;51.75;101594.70;1739058;80;21229;-54
2022/03/10 09:04:08;;;;;;;16.85;6.35;;;;;;;-5.11;51.50;101618.22;1739231;82;21209;-53
2022/03/10 09:07:19;;;;;;;11.20;5.58;;;;;;;-5.10;51.53;101610.16;1743271;81;21209;-52
2022/03/10 09:10:27;;;;;;;11.28;4.97;;;;;;;-4.98;51.50;101587.06;1732941;82;21217;-57
2022/03/10 09:13:37;;;;;;;8.55;5.50;;;;;;;-4.93;50.87;101590.47;1739560;82;21189;-55
2022/03/10 09:16:44;;;;;;;13.85;8.65;;;;;;;-4.97;51.17;101607.97;1753689;81;21212;-55
2022/03/10 09:19:56;;;;;;;17.02;6.22;;;;;;;-4.97;50.80;101579.95;1764515;81;21212;-53
2022/03/10 09:23:03;;;;;;;8.58;4.70;;;;;;;-4.92;50.61;101585.56;1769143;80;21794;-54
2022/03/10 09:26:11;;;;;;;10.43;5.87;;;;;;;-4.83;50.37;101602.61;1769443;80;22014;-53
2022/03/10 09:29:18;;;;;;;8.78;5.22;;;;;;;-4.79;50.50;101590.04;1770081;80;21210;-53
2022/03/10 09:32:23;;;;;;;10.28;6.58;;;;;;;-4.65;50.78;101603.33;1768889;81;21169;-55
2022/03/10 09:35:30;;;;;;;14.23;6.60;;;;;;;-4.63;50.16;101614.84;1769231;81;21217;-55
2022/03/10 09:38:36;;;;;;;14.40;5.72;;;;;;;-4.55;50.07;101597.70;1769627;81;21750;-55
2022/03/10 09:41:41;;;;;;;8.68;4.42;;;;;;;-4.44;50.38;101600.43;1770016;81;21189;-55
2022/03/10 09:53:16;;;;;;;14.95;7.15;;;;;;;-4.30;50.02;101590.59;1743537;81;21717;-53
2022/03/10 09:56:23;;;;;;;13.80;6.53;;;;;;;-4.23;49.57;101604.16;1739043;82;21225;-55
2022/03/10 09:59:36;;;;;;;8.68;5.22;;;;;;;-4.17;49.34;101594.59;1761726;80;21240;-54
2022/03/10 10:02:44;;;;;;;13.72;5.95;;;;;;;-4.11;48.79;101582.33;1766397;81;21706;-56
2022/03/10 10:05:52;;;;;;;15.88;5.83;;;;;;;-4.16;48.65;101582.95;1768955;80;21201;-53
2022/03/10 10:09:04;;;;;;;8.07;4.60;;;;;;;-4.02;48.91;101588.67;1769745;80;21229;-52
2022/03/10 10:12:14;;;;;;;9.80;4.55;;;;;;;-3.81;48.59;101583.90;1765191;80;21737;-53
2022/03/10 10:15:18;;;;;;;7.50;4.25;;;;;;;-3.76;47.89;101583.27;1754579;81;21279;-52
2022/03/10 10:18:24;;;;;;;9.88;5.37;;;;;;;-3.81;47.61;101574.53;1755525;80;21177;-52
2022/03/10 10:21:32;;;;;;;9.28;5.00;;;;;;;-3.80;47.93;101562.44;1738621;82;21253;-52
2022/03/10 10:24:38;;;;;;;8.80;4.85;;;;;;;-3.59;48.03;101569.67;1750267;81;21197;-51
2022/03/10 10:27:46;;;;;;;9.38;5.10;;;;;;;-3.40;47.43;101567.16;1744901;81;21309;-52
2022/03/10 10:31:05;;;;;;;8.25;4.87;;;;;;;-3.21;46.67;101566.84;1739010;81;21224;-53
2022/03/10 10:34:09;;;;;;;15.85;6.37;;;;;;;-3.09;45.21;101570.36;1741987;81;21209;-52
2022/03/10 10:37:03;;;;;;;10.53;5.12;;;;;;;-3.08;44.26;101554.72;1739741;82;21765;-54
2022/03/10 10:40:08;;;;;;;10.85;4.83;;;;;;;-3.16;43.63;101563.52;1754428;81;21213;-53
2022/03/10 10:43:17;;;;;;;6.90;4.67;;;;;;;-3.18;44.48;101543.96;1744590;81;21205;-53
2022/03/10 10:46:45;;;;;;;12.33;5.17;;;;;;;-2.97;44.40;101579.27;1740132;82;21757;-53
2022/03/10 22:22:21;;;;;;;8.13;3.77;;;;;;;-6.35;72.33;101643.59;1878154;76;22181;-53
2022/03/10 22:25:28;;;;;;;7.53;4.30;;;;;;;-6.34;71.70;101642.66;1767059;81;21280;-53
2022/03/10 22:28:36;;;;;;;6.47;3.17;;;;;;;-6.33;70.73;101643.95;1777462;80;21733;-53
2022/03/10 22:31:48;;;;;;;7.80;3.65;;;;;;;-6.35;70.02;101635.60;1805001;79;21263;-54
2022/03/10 22:34:56;;;;;;;9.18;3.92;;;;;;;-6.42;69.84;101638.02;1799161;79;21204;-53
2022/03/10 22:38:04;;;;;;;9.00;3.35;;;;;;;-6.39;70.06;101645.94;1779813;79;21212;-52
2022/03/10 22:41:11;;;;;;;7.60;3.85;;;;;;;-6.40;70.07;101641.50;1797212;80;21220;-53
2022/03/10 22:44:18;;;;;;;6.55;3.47;;;;;;;-6.41;70.20;101650.41;1747869;80;21196;-52
2022/03/10 22:47:26;;;;;;;6.75;3.98;;;;;;;-6.33;70.41;101643.11;1803908;79;21719;-53
2022/03/10 22:54:13;;;;;;;5.22;3.22;;;;;;;-6.29;70.37;101649.64;1805143;79;21181;-53
2022/03/10 22:57:20;;;;;;;7.95;4.08;;;;;;;-6.23;70.05;101656.58;1805027;79;21189;-53
2022/03/10 23:00:44;;;;;;;8.85;4.20;;;;;;;-6.24;69.88;101653.52;1804226;79;21201;-53
2022/03/10 23:03:56;;;;;;;8.43;3.85;;;;;;;-6.19;70.13;101648.95;1804432;79;21177;-54
2022/03/10 23:10:26;;;;;;;6.97;3.65;;;;;;;-6.08;70.87;101643.32;1805111;79;21255;-53
2022/03/10 23:13:35;;;;;;;6.97;4.00;;;;;;;-6.05;70.93;101635.23;1804834;79;21184;-54
2022/03/10 23:16:41;;;;;;;12.23;3.90;;;;;;;-5.95;70.93;101647.41;1804973;79;21184;-54
2022/03/10 23:19:50;;;;;;;7.30;3.77;;;;;;;-5.95;70.23;101646.96;1805302;79;21201;-55
2022/03/10 23:22:56;;;;;;;5.58;3.10;;;;;;;-5.98;69.96;101651.05;1776157;79;21225;-53
2022/03/10 23:26:03;;;;;;;7.85;3.67;;;;;;;-5.95;69.97;101648.30;1768763;80;21268;-53
2022/03/10 23:29:10;;;;;;;6.70;3.87;;;;;;;-5.91;69.83;101644.62;1768938;80;21318;-53
2022/03/10 23:32:17;;;;;;;4.83;3.00;;;;;;;-5.97;69.63;101636.80;1768269;80;21225;-53
2022/03/10 23:35:25;;;;;;;6.33;3.25;;;;;;;-5.94;69.65;101638.48;1767984;80;21363;-53
2022/03/10 23:38:35;;;;;;;5.85;3.83;;;;;;;-6.00;69.85;101622.67;1768039;81;21213;-53
2022/03/10 23:41:43;;;;;;;7.70;3.55;;;;;;;-5.96;70.29;101625.20;1768507;81;21252;-53
2022/03/10 23:44:50;;;;;;;8.63;4.05;;;;;;;-5.83;70.68;101621.29;1768067;81;21347;-53
2022/03/10 23:47:59;;;;;;;7.72;3.55;;;;;;;-5.80;70.28;101617.17;1768250;81;21204;-53
2022/03/10 23:51:06;;;;;;;7.75;3.65;;;;;;;-5.87;70.34;101610.31;1767992;81;21899;-53
2022/03/10 23:54:14;;;;;;;6.95;3.35;;;;;;;-5.92;70.42;101608.23;1767983;81;21343;-53
2022/03/10 23:57:22;;;;;;;5.10;2.80;;;;;;;-5.98;70.59;101608.85;1767991;81;21193;-55
